sensor_id;sensor_type;location;lat;lon;timestamp;pressure;altitude;pressure_sealevel;temperature
13497;BMP180;6820;49.374;8.452;2022-12-04T00:01:10;100480.88;;;11.15
13497;BMP180;6820;49.374;8.452;2022-12-04T00:05:11;100477.34;;;11.13
13497;BMP180;6820;49.374;8.452;2022-12-04T00:09:13;100471.53;;;11.14
13497;BMP180;6820;49.374;8.452;2022-12-04T00:13:15;100480.00;;;11.15
13497;BMP180;6820;49.374;8.452;2022-12-04T00:17:16;100485.16;;;11.16
13497;BMP180;6820;49.374;8.452;2022-12-04T00:21:18;100475.78;;;11.15
13497;BMP180;6820;49.374;8.452;2022-12-04T00:25:20;100480.50;;;11.09
13497;BMP180;6820;49.374;8.452;2022-12-04T00:29:22;100471.66;;;11.03
13497;BMP180;6820;49.374;8.452;2022-12-04T00:33:23;100463.84;;;11.00
13497;BMP180;6820;49.374;8.452;2022-12-04T00:37:25;100465.69;;;11.02
13497;BMP180;6820;49.374;8.452;2022-12-04T00:41:28;100454.06;;;11.06
13497;BMP180;6820;49.374;8.452;2022-12-04T00:45:30;100460.91;;;11.07
13497;BMP180;6820;49.374;8.452;2022-12-04T00:49:31;100447.16;;;11.03
13497;BMP180;6820;49.374;8.452;2022-12-04T00:53:33;100446.03;;;10.98
13497;BMP180;6820;49.374;8.452;2022-12-04T00:57:35;100446.28;;;11.03
13497;BMP180;6820;49.374;8.452;2022-12-04T01:01:36;100452.50;;;11.08
13497;BMP180;6820;49.374;8.452;2022-12-04T01:05:43;100441.41;;;11.06
13497;BMP180;6820;49.374;8.452;2022-12-04T01:09:45;100445.41;;;11.02
13497;BMP180;6820;49.374;8.452;2022-12-04T01:13:47;100432.16;;;11.06
13497;BMP180;6820;49.374;8.452;2022-12-04T01:17:49;100438.28;;;11.10
13497;BMP180;6820;49.374;8.452;2022-12-04T01:21:50;100447.44;;;11.08
13497;BMP180;6820;49.374;8.452;2022-12-04T01:25:54;100456.09;;;11.11
13497;BMP180;6820;49.374;8.452;2022-12-04T01:29:56;100454.19;;;11.07
13497;BMP180;6820;49.374;8.452;2022-12-04T01:33:58;100469.91;;;11.02
13497;BMP180;6820;49.374;8.452;2022-12-04T01:37:59;100459.66;;;11.00
13497;BMP180;6820;49.374;8.452;2022-12-04T01:42:02;100442.00;;;11.02
13497;BMP180;6820;49.374;8.452;2022-12-04T01:46:04;100446.81;;;10.97
13497;BMP180;6820;49.374;8.452;2022-12-04T01:50:06;100443.50;;;10.98
13497;BMP180;6820;49.374;8.452;2022-12-04T01:54:13;100439.47;;;11.02
13497;BMP180;6820;49.374;8.452;2022-12-04T01:58:16;100454.00;;;11.04
13497;BMP180;6820;49.374;8.452;2022-12-04T02:02:25;100455.91;;;11.08
13497;BMP180;6820;49.374;8.452;2022-12-04T02:06:28;100455.31;;;11.12
13497;BMP180;6820;49.374;8.452;2022-12-04T02:10:39;100466.97;;;11.09
13497;BMP180;6820;49.374;8.452;2022-12-04T02:14:59;100465.00;;;11.05
13497;BMP180;6820;49.374;8.452;2022-12-04T02:27:47;100443.75;;;11.03
13497;BMP180;6820;49.374;8.452;2022-12-04T02:31:54;100458.28;;;11.05
13497;BMP180;6820;49.374;8.452;2022-12-04T02:36:02;100455.75;;;11.05
13497;BMP180;6820;49.374;8.452;2022-12-04T02:40:13;100451.53;;;11.06
13497;BMP180;6820;49.374;8.452;2022-12-04T02:44:28;100459.94;;;11.05
13497;BMP180;6820;49.374;8.452;2022-12-04T02:48:33;100449.69;;;11.03
13497;BMP180;6820;49.374;8.452;2022-12-04T02:52:53;100444.63;;;11.03
13497;BMP180;6820;49.374;8.452;2022-12-04T02:56:58;100427.50;;;10.99
13497;BMP180;6820;49.374;8.452;2022-12-04T03:01:07;100435.78;;;10.97
13497;BMP180;6820;49.374;8.452;2022-12-04T03:05:24;100423.22;;;10.98
13497;BMP180;6820;49.374;8.452;2022-12-04T03:09:49;100425.13;;;11.02
13497;BMP180;6820;49.374;8.452;2022-12-04T03:13:59;100417.63;;;11.04
13497;BMP180;6820;49.374;8.452;2022-12-04T03:18:05;100428.81;;;11.07
13497;BMP180;6820;49.374;8.452;2022-12-04T03:22:11;100420.56;;;10.97
13497;BMP180;6820;49.374;8.452;2022-12-04T03:26:25;100425.75;;;10.98
13497;BMP180;6820;49.374;8.452;2022-12-04T03:30:35;100419.25;;;11.03
13497;BMP180;6820;49.374;8.452;2022-12-04T03:35:04;100405.53;;;11.00
13497;BMP180;6820;49.374;8.452;2022-12-04T03:43:27;100418.72;;;10.94
13497;BMP180;6820;49.374;8.452;2022-12-04T03:47:42;100412.91;;;10.95
13497;BMP180;6820;49.374;8.452;2022-12-04T03:51:53;100399.72;;;11.01
13497;BMP180;6820;49.374;8.452;2022-12-04T03:56:02;100414.63;;;10.96
13497;BMP180;6820;49.374;8.452;2022-12-04T04:00:06;100397.94;;;11.00
13497;BMP180;6820;49.374;8.452;2022-12-04T04:04:12;100404.50;;;10.96
13497;BMP180;6820;49.374;8.452;2022-12-04T04:08:21;100396.34;;;10.88
13497;BMP180;6820;49.374;8.452;2022-12-04T04:12:30;100383.69;;;10.88
13497;BMP180;6820;49.374;8.452;2022-12-04T04:16:36;100389.97;;;10.94
13497;BMP180;6820;49.374;8.452;2022-12-04T04:20:58;100387.78;;;11.00
13497;BMP180;6820;49.374;8.452;2022-12-04T04:25:35;100378.09;;;10.93
13497;BMP180;6820;49.374;8.452;2022-12-04T04:29:38;100371.59;;;10.98
13497;BMP180;6820;49.374;8.452;2022-12-04T04:33:52;100382.66;;;10.98
13497;BMP180;6820;49.374;8.452;2022-12-04T04:38:20;100376.78;;;10.99
13497;BMP180;6820;49.374;8.452;2022-12-04T04:42:33;100377.19;;;10.93
13497;BMP180;6820;49.374;8.452;2022-12-04T04:46:39;100386.75;;;10.96
13497;BMP180;6820;49.374;8.452;2022-12-04T04:50:43;100391.03;;;10.97
13497;BMP180;6820;49.374;8.452;2022-12-04T04:54:45;100408.00;;;10.98
13497;BMP180;6820;49.374;8.452;2022-12-04T04:58:47;100411.31;;;10.97
13497;BMP180;6820;49.374;8.452;2022-12-04T05:02:49;100402.25;;;11.01
13497;BMP180;6820;49.374;8.452;2022-12-04T05:06:51;100399.19;;;11.06
13497;BMP180;6820;49.374;8.452;2022-12-04T05:10:52;100402.25;;;11.01
13497;BMP180;6820;49.374;8.452;2022-12-04T05:14:54;100399.25;;;10.94
13497;BMP180;6820;49.374;8.452;2022-12-04T05:18:55;100405.81;;;10.90
13497;BMP180;6820;49.374;8.452;2022-12-04T05:23:15;100401.09;;;10.96
13497;BMP180;6820;49.374;8.452;2022-12-04T05:27:17;100391.47;;;11.05
13497;BMP180;6820;49.374;8.452;2022-12-04T05:31:19;100394.28;;;11.09
13497;BMP180;6820;49.374;8.452;2022-12-04T05:35:20;100386.50;;;11.06
13497;BMP180;6820;49.374;8.452;2022-12-04T05:39:22;100391.19;;;11.00
13497;BMP180;6820;49.374;8.452;2022-12-04T05:43:23;100400.91;;;10.93
13497;BMP180;6820;49.374;8.452;2022-12-04T05:47:25;100399.78;;;11.02
13497;BMP180;6820;49.374;8.452;2022-12-04T05:51:50;100407.84;;;11.10
13497;BMP180;6820;49.374;8.452;2022-12-04T05:56:00;100410.84;;;11.17
13497;BMP180;6820;49.374;8.452;2022-12-04T06:00:03;100403.28;;;11.19
13497;BMP180;6820;49.374;8.452;2022-12-04T06:04:11;100407.94;;;11.25
13497;BMP180;6820;49.374;8.452;2022-12-04T06:08:13;100411.47;;;11.27
13497;BMP180;6820;49.374;8.452;2022-12-04T06:12:15;100413.03;;;11.25
13497;BMP180;6820;49.374;8.452;2022-12-04T06:16:22;100401.91;;;11.24
13497;BMP180;6820;49.374;8.452;2022-12-04T06:20:24;100403.28;;;11.19
13497;BMP180;6820;49.374;8.452;2022-12-04T06:24:25;100406.00;;;11.22
13497;BMP180;6820;49.374;8.452;2022-12-04T06:28:27;100398.66;;;11.26
13497;BMP180;6820;49.374;8.452;2022-12-04T06:32:28;100397.63;;;11.23
13497;BMP180;6820;49.374;8.452;2022-12-04T06:36:30;100394.41;;;11.25
13497;BMP180;6820;49.374;8.452;2022-12-04T06:40:32;100408.03;;;11.27
13497;BMP180;6820;49.374;8.452;2022-12-04T06:44:33;100402.19;;;11.28
13497;BMP180;6820;49.374;8.452;2022-12-04T06:48:35;100405.59;;;11.28
13497;BMP180;6820;49.374;8.452;2022-12-04T06:52:37;100404.72;;;11.28
13497;BMP180;6820;49.374;8.452;2022-12-04T06:56:39;100402.78;;;11.24
13497;BMP180;6820;49.374;8.452;2022-12-04T07:00:40;100404.84;;;11.17
13497;BMP180;6820;49.374;8.452;2022-12-04T07:04:42;100411.88;;;11.21
13497;BMP180;6820;49.374;8.452;2022-12-04T07:08:45;100401.09;;;11.24
13497;BMP180;6820;49.374;8.452;2022-12-04T07:12:47;100401.38;;;11.29
13497;BMP180;6820;49.374;8.452;2022-12-04T07:16:48;100401.56;;;11.32
13497;BMP180;6820;49.374;8.452;2022-12-04T07:20:50;100397.44;;;11.34
13497;BMP180;6820;49.374;8.452;2022-12-04T07:24:52;100399.00;;;11.32
13497;BMP180;6820;49.374;8.452;2022-12-04T07:28:54;100412.41;;;11.29
13497;BMP180;6820;49.374;8.452;2022-12-04T07:32:56;100408.28;;;11.31
13497;BMP180;6820;49.374;8.452;2022-12-04T07:36:57;100414.22;;;11.32
13497;BMP180;6820;49.374;8.452;2022-12-04T07:41:00;100414.69;;;11.25
13497;BMP180;6820;49.374;8.452;2022-12-04T07:45:01;100411.53;;;11.29
13497;BMP180;6820;49.374;8.452;2022-12-04T07:49:03;100401.56;;;11.32
13497;BMP180;6820;49.374;8.452;2022-12-04T07:53:04;100394.91;;;11.34
13497;BMP180;6820;49.374;8.452;2022-12-04T07:57:06;100400.97;;;11.36
13497;BMP180;6820;49.374;8.452;2022-12-04T08:05:11;100401.81;;;11.36
13497;BMP180;6820;49.374;8.452;2022-12-04T08:09:12;100402.00;;;11.39
13497;BMP180;6820;49.374;8.452;2022-12-04T08:13:14;100404.03;;;11.45
13497;BMP180;6820;49.374;8.452;2022-12-04T08:17:15;100405.19;;;11.50
13497;BMP180;6820;49.374;8.452;2022-12-04T08:21:20;100394.06;;;11.48
13497;BMP180;6820;49.374;8.452;2022-12-04T08:25:22;100385.47;;;11.46
13497;BMP180;6820;49.374;8.452;2022-12-04T08:29:24;100388.66;;;11.42
13497;BMP180;6820;49.374;8.452;2022-12-04T08:33:25;100401.41;;;11.43
13497;BMP180;6820;49.374;8.452;2022-12-04T08:37:27;100400.00;;;11.48
13497;BMP180;6820;49.374;8.452;2022-12-04T08:41:29;100404.72;;;11.56
13497;BMP180;6820;49.374;8.452;2022-12-04T08:45:30;100398.72;;;11.55
13497;BMP180;6820;49.374;8.452;2022-12-04T08:49:32;100408.06;;;11.56
13497;BMP180;6820;49.374;8.452;2022-12-04T08:53:34;100398.09;;;11.58
13497;BMP180;6820;49.374;8.452;2022-12-04T08:57:39;100399.38;;;11.66
13497;BMP180;6820;49.374;8.452;2022-12-04T09:01:40;100394.47;;;11.69
13497;BMP180;6820;49.374;8.452;2022-12-04T09:05:43;100405.09;;;11.62
13497;BMP180;6820;49.374;8.452;2022-12-04T09:09:46;100391.44;;;11.60
13497;BMP180;6820;49.374;8.452;2022-12-04T09:13:49;100400.56;;;11.57
13497;BMP180;6820;49.374;8.452;2022-12-04T09:17:51;100416.28;;;11.66
13497;BMP180;6820;49.374;8.452;2022-12-04T09:21:52;100414.19;;;11.73
13497;BMP180;6820;49.374;8.452;2022-12-04T09:25:55;100423.53;;;11.74
13497;BMP180;6820;49.374;8.452;2022-12-04T09:29:56;100412.59;;;11.75
13497;BMP180;6820;49.374;8.452;2022-12-04T09:33:59;100413.56;;;11.77
13497;BMP180;6820;49.374;8.452;2022-12-04T09:38:01;100424.50;;;11.76
13497;BMP180;6820;49.374;8.452;2022-12-04T09:42:19;100425.81;;;11.84
13497;BMP180;6820;49.374;8.452;2022-12-04T09:46:35;100422.03;;;11.92
13497;BMP180;6820;49.374;8.452;2022-12-04T09:50:40;100410.47;;;11.97
13497;BMP180;6820;49.374;8.452;2022-12-04T09:54:43;100400.06;;;11.92
13497;BMP180;6820;49.374;8.452;2022-12-04T09:58:52;100400.22;;;11.95
13497;BMP180;6820;49.374;8.452;2022-12-04T10:03:01;100405.56;;;12.00
13497;BMP180;6820;49.374;8.452;2022-12-04T10:07:21;100394.59;;;12.01
13497;BMP180;6820;49.374;8.452;2022-12-04T10:11:31;100382.63;;;11.98
13497;BMP180;6820;49.374;8.452;2022-12-04T10:15:47;100380.56;;;12.07
13497;BMP180;6820;49.374;8.452;2022-12-04T10:24:07;100360.00;;;12.03
13497;BMP180;6820;49.374;8.452;2022-12-04T10:28:28;100348.28;;;12.05
13497;BMP180;6820;49.374;8.452;2022-12-04T10:32:32;100338.41;;;11.95
13497;BMP180;6820;49.374;8.452;2022-12-04T10:36:34;100340.09;;;11.94
13497;BMP180;6820;49.374;8.452;2022-12-04T10:40:56;100337.06;;;12.01
13497;BMP180;6820;49.374;8.452;2022-12-04T10:44:58;100336.34;;;12.04
13497;BMP180;6820;49.374;8.452;2022-12-04T10:49:16;100334.38;;;11.98
13497;BMP180;6820;49.374;8.452;2022-12-04T10:53:28;100337.28;;;11.90
13497;BMP180;6820;49.374;8.452;2022-12-04T10:57:43;100329.41;;;11.86
13497;BMP180;6820;49.374;8.452;2022-12-04T11:01:45;100323.63;;;11.88
13497;BMP180;6820;49.374;8.452;2022-12-04T11:05:56;100326.81;;;11.84
13497;BMP180;6820;49.374;8.452;2022-12-04T11:10:02;100327.50;;;11.82
13497;BMP180;6820;49.374;8.452;2022-12-04T11:14:12;100323.47;;;11.85
13497;BMP180;6820;49.374;8.452;2022-12-04T11:18:17;100322.31;;;11.80
13497;BMP180;6820;49.374;8.452;2022-12-04T11:22:19;100325.88;;;11.68
13497;BMP180;6820;49.374;8.452;2022-12-04T11:26:36;100329.13;;;11.65
13497;BMP180;6820;49.374;8.452;2022-12-04T11:30:38;100338.22;;;11.62
13497;BMP180;6820;49.374;8.452;2022-12-04T11:34:40;100338.41;;;11.51
13497;BMP180;6820;49.374;8.452;2022-12-04T11:38:41;100343.84;;;11.42
13497;BMP180;6820;49.374;8.452;2022-12-04T11:42:43;100343.13;;;11.30
13497;BMP180;6820;49.374;8.452;2022-12-04T11:46:51;100347.31;;;11.30
13497;BMP180;6820;49.374;8.452;2022-12-04T11:55:23;100349.50;;;11.24
13497;BMP180;6820;49.374;8.452;2022-12-04T12:04:07;100345.56;;;11.29
13497;BMP180;6820;49.374;8.452;2022-12-04T12:08:42;100337.09;;;11.28
13497;BMP180;6820;49.374;8.452;2022-12-04T12:17:43;100335.50;;;11.16
13497;BMP180;6820;49.374;8.452;2022-12-04T12:26:09;100338.91;;;11.17
13497;BMP180;6820;49.374;8.452;2022-12-04T12:30:21;100351.53;;;11.15
13497;BMP180;6820;49.374;8.452;2022-12-04T12:34:43;100340.69;;;11.18
13497;BMP180;6820;49.374;8.452;2022-12-04T12:39:08;100338.91;;;11.17
13497;BMP180;6820;49.374;8.452;2022-12-04T12:47:39;100332.91;;;11.15
13497;BMP180;6820;49.374;8.452;2022-12-04T12:51:50;100324.44;;;11.14
13497;BMP180;6820;49.374;8.452;2022-12-04T12:55:54;100325.19;;;11.13
13497;BMP180;6820;49.374;8.452;2022-12-04T13:00:02;100325.31;;;11.15
13497;BMP180;6820;49.374;8.452;2022-12-04T13:04:07;100304.91;;;11.13
13497;BMP180;6820;49.374;8.452;2022-12-04T13:12:19;100283.31;;;11.05
13497;BMP180;6820;49.374;8.452;2022-12-04T13:16:43;100281.06;;;11.10
13497;BMP180;6820;49.374;8.452;2022-12-04T13:20:52;100270.81;;;11.08
13497;BMP180;6820;49.374;8.452;2022-12-04T13:30:00;100278.69;;;10.98
13497;BMP180;6820;49.374;8.452;2022-12-04T13:34:20;100279.91;;;11.05
13497;BMP180;6820;49.374;8.452;2022-12-04T13:47:30;100259.53;;;11.18
13497;BMP180;6820;49.374;8.452;2022-12-04T13:51:38;100271.22;;;11.30
13497;BMP180;6820;49.374;8.452;2022-12-04T13:55:41;100269.75;;;11.33
13497;BMP180;6820;49.374;8.452;2022-12-04T13:59:43;100258.47;;;11.28
13497;BMP180;6820;49.374;8.452;2022-12-04T14:03:50;100255.50;;;11.21
13497;BMP180;6820;49.374;8.452;2022-12-04T14:08:07;100255.97;;;11.14
13497;BMP180;6820;49.374;8.452;2022-12-04T14:12:26;100261.56;;;11.09
13497;BMP180;6820;49.374;8.452;2022-12-04T14:16:33;100276.66;;;11.22
13497;BMP180;6820;49.374;8.452;2022-12-04T14:20:38;100293.00;;;11.26
13497;BMP180;6820;49.374;8.452;2022-12-04T14:24:40;100280.00;;;11.21
13497;BMP180;6820;49.374;8.452;2022-12-04T14:28:42;100295.66;;;11.28
13497;BMP180;6820;49.374;8.452;2022-12-04T14:32:48;100298.34;;;11.31
13497;BMP180;6820;49.374;8.452;2022-12-04T14:36:51;100305.00;;;11.29
13497;BMP180;6820;49.374;8.452;2022-12-04T14:40:54;100313.03;;;11.36
13497;BMP180;6820;49.374;8.452;2022-12-04T14:44:59;100312.22;;;11.37
13497;BMP180;6820;49.374;8.452;2022-12-04T14:53:33;100300.88;;;11.31
13497;BMP180;6820;49.374;8.452;2022-12-04T14:57:53;100307.53;;;11.29
13497;BMP180;6820;49.374;8.452;2022-12-04T15:01:56;100300.88;;;11.31
13497;BMP180;6820;49.374;8.452;2022-12-04T15:06:03;100291.06;;;11.37
13497;BMP180;6820;49.374;8.452;2022-12-04T15:10:21;100287.66;;;11.36
13497;BMP180;6820;49.374;8.452;2022-12-04T15:14:44;100283.72;;;11.27
13497;BMP180;6820;49.374;8.452;2022-12-04T15:18:56;100280.31;;;11.26
13497;BMP180;6820;49.374;8.452;2022-12-04T15:23:00;100269.41;;;11.27
13497;BMP180;6820;49.374;8.452;2022-12-04T15:27:03;100268.59;;;11.28
13497;BMP180;6820;49.374;8.452;2022-12-04T15:31:11;100276.28;;;11.30
13497;BMP180;6820;49.374;8.452;2022-12-04T15:35:28;100287.06;;;11.26
13497;BMP180;6820;49.374;8.452;2022-12-04T15:39:32;100289.59;;;11.26
13497;BMP180;6820;49.374;8.452;2022-12-04T15:43:40;100292.41;;;11.30
13497;BMP180;6820;49.374;8.452;2022-12-04T15:51:47;100300.41;;;11.38
13497;BMP180;6820;49.374;8.452;2022-12-04T15:55:54;100297.31;;;11.27
13497;BMP180;6820;49.374;8.452;2022-12-04T15:59:57;100288.63;;;11.24
13497;BMP180;6820;49.374;8.452;2022-12-04T16:04:18;100290.84;;;11.18
13497;BMP180;6820;49.374;8.452;2022-12-04T16:08:40;100284.63;;;11.13
13497;BMP180;6820;49.374;8.452;2022-12-04T16:12:53;100296.78;;;11.19
13497;BMP180;6820;49.374;8.452;2022-12-04T16:16:57;100304.47;;;11.20
13497;BMP180;6820;49.374;8.452;2022-12-04T16:21:14;100320.47;;;11.19
13497;BMP180;6820;49.374;8.452;2022-12-04T16:25:16;100316.19;;;11.18
13497;BMP180;6820;49.374;8.452;2022-12-04T16:29:18;100320.56;;;11.21
13497;BMP180;6820;49.374;8.452;2022-12-04T16:33:20;100308.00;;;11.22
13497;BMP180;6820;49.374;8.452;2022-12-04T16:37:22;100300.78;;;11.29
13497;BMP180;6820;49.374;8.452;2022-12-04T16:41:24;100304.13;;;11.28
13497;BMP180;6820;49.374;8.452;2022-12-04T16:45:28;100305.44;;;11.22
13497;BMP180;6820;49.374;8.452;2022-12-04T16:49:31;100293.81;;;11.25
13497;BMP180;6820;49.374;8.452;2022-12-04T16:53:33;100282.63;;;11.22
13497;BMP180;6820;49.374;8.452;2022-12-04T16:57:34;100284.91;;;11.18
13497;BMP180;6820;49.374;8.452;2022-12-04T17:01:41;100278.94;;;11.17
13497;BMP180;6820;49.374;8.452;2022-12-04T17:05:44;100281.91;;;11.10
13497;BMP180;6820;49.374;8.452;2022-12-04T17:09:46;100294.59;;;11.10
13497;BMP180;6820;49.374;8.452;2022-12-04T17:13:47;100283.59;;;11.10
13497;BMP180;6820;49.374;8.452;2022-12-04T17:17:49;100276.84;;;11.10
13497;BMP180;6820;49.374;8.452;2022-12-04T17:21:51;100276.31;;;11.16
13497;BMP180;6820;49.374;8.452;2022-12-04T17:25:52;100266.34;;;11.19
13497;BMP180;6820;49.374;8.452;2022-12-04T17:29:54;100264.50;;;11.16
13497;BMP180;6820;49.374;8.452;2022-12-04T17:33:56;100266.53;;;11.07
13497;BMP180;6820;49.374;8.452;2022-12-04T17:37:58;100263.19;;;11.08
13497;BMP180;6820;49.374;8.452;2022-12-04T17:42:06;100259.03;;;11.09
13497;BMP180;6820;49.374;8.452;2022-12-04T17:46:13;100270.22;;;11.12
13497;BMP180;6820;49.374;8.452;2022-12-04T17:50:15;100265.03;;;11.11
13497;BMP180;6820;49.374;8.452;2022-12-04T17:54:17;100275.72;;;11.05
13497;BMP180;6820;49.374;8.452;2022-12-04T17:58:19;100286.03;;;11.08
13497;BMP180;6820;49.374;8.452;2022-12-04T18:02:20;100290.38;;;11.11
13497;BMP180;6820;49.374;8.452;2022-12-04T18:06:34;100301.50;;;11.13
13497;BMP180;6820;49.374;8.452;2022-12-04T18:10:36;100307.38;;;11.12
13497;BMP180;6820;49.374;8.452;2022-12-04T18:14:38;100302.38;;;11.13
13497;BMP180;6820;49.374;8.452;2022-12-04T18:18:40;100308.47;;;11.17
13497;BMP180;6820;49.374;8.452;2022-12-04T18:22:41;100307.88;;;11.21
13497;BMP180;6820;49.374;8.452;2022-12-04T18:26:44;100304.19;;;11.30
13497;BMP180;6820;49.374;8.452;2022-12-04T18:30:46;100313.75;;;11.34
13497;BMP180;6820;49.374;8.452;2022-12-04T18:34:48;100312.16;;;11.36
13497;BMP180;6820;49.374;8.452;2022-12-04T18:39:01;100308.94;;;11.38
13497;BMP180;6820;49.374;8.452;2022-12-04T18:43:03;100299.66;;;11.39
13497;BMP180;6820;49.374;8.452;2022-12-04T18:47:04;100295.66;;;11.28
13497;BMP180;6820;49.374;8.452;2022-12-04T18:51:22;100301.84;;;11.19
13497;BMP180;6820;49.374;8.452;2022-12-04T18:55:24;100307.63;;;11.16
13497;BMP180;6820;49.374;8.452;2022-12-04T18:59:26;100313.16;;;11.09
13497;BMP180;6820;49.374;8.452;2022-12-04T19:03:29;100311.53;;;11.11
13497;BMP180;6820;49.374;8.452;2022-12-04T19:07:30;100313.56;;;11.02
13497;BMP180;6820;49.374;8.452;2022-12-04T19:11:32;100314.19;;;10.98
13497;BMP180;6820;49.374;8.452;2022-12-04T19:15:40;100319.69;;;10.92
13497;BMP180;6820;49.374;8.452;2022-12-04T19:19:42;100321.69;;;10.97
13497;BMP180;6820;49.374;8.452;2022-12-04T19:23:55;100314.03;;;10.95
13497;BMP180;6820;49.374;8.452;2022-12-04T19:27:59;100331.56;;;10.93
13497;BMP180;6820;49.374;8.452;2022-12-04T19:32:03;100334.72;;;11.03
13497;BMP180;6820;49.374;8.452;2022-12-04T19:36:05;100338.94;;;11.02
13497;BMP180;6820;49.374;8.452;2022-12-04T19:40:07;100339.44;;;10.97
13497;BMP180;6820;49.374;8.452;2022-12-04T19:44:09;100352.56;;;11.04
13497;BMP180;6820;49.374;8.452;2022-12-04T19:48:31;100361.16;;;11.06
13497;BMP180;6820;49.374;8.452;2022-12-04T19:52:33;100365.00;;;11.14
13497;BMP180;6820;49.374;8.452;2022-12-04T19:56:34;100363.41;;;11.16
13497;BMP180;6820;49.374;8.452;2022-12-04T20:00:36;100373.13;;;11.23
13497;BMP180;6820;49.374;8.452;2022-12-04T20:04:38;100379.34;;;11.28
13497;BMP180;6820;49.374;8.452;2022-12-04T20:08:40;100374.63;;;11.34
13497;BMP180;6820;49.374;8.452;2022-12-04T20:12:42;100381.25;;;11.32
13497;BMP180;6820;49.374;8.452;2022-12-04T20:16:44;100377.56;;;11.27
13497;BMP180;6820;49.374;8.452;2022-12-04T20:20:54;100371.47;;;11.24
13497;BMP180;6820;49.374;8.452;2022-12-04T20:24:56;100383.63;;;11.29
13497;BMP180;6820;49.374;8.452;2022-12-04T20:28:58;100380.91;;;11.26
13497;BMP180;6820;49.374;8.452;2022-12-04T20:33:00;100378.03;;;11.20
13497;BMP180;6820;49.374;8.452;2022-12-04T20:37:02;100381.53;;;11.22
13497;BMP180;6820;49.374;8.452;2022-12-04T20:41:09;100377.56;;;11.27
13497;BMP180;6820;49.374;8.452;2022-12-04T20:45:13;100385.63;;;11.34
13497;BMP180;6820;49.374;8.452;2022-12-04T20:49:18;100387.91;;;11.30
13497;BMP180;6820;49.374;8.452;2022-12-04T20:53:22;100386.22;;;11.16
13497;BMP180;6820;49.374;8.452;2022-12-04T20:57:24;100392.38;;;11.20
13497;BMP180;6820;49.374;8.452;2022-12-04T21:01:26;100383.00;;;11.19
13497;BMP180;6820;49.374;8.452;2022-12-04T21:05:28;100379.41;;;11.15
13497;BMP180;6820;49.374;8.452;2022-12-04T21:09:30;100389.56;;;11.15
13497;BMP180;6820;49.374;8.452;2022-12-04T21:13:31;100376.25;;;11.05
13497;BMP180;6820;49.374;8.452;2022-12-04T21:17:52;100387.16;;;10.90
13497;BMP180;6820;49.374;8.452;2022-12-04T21:21:53;100385.28;;;10.73
13497;BMP180;6820;49.374;8.452;2022-12-04T21:25:55;100384.13;;;10.68
13497;BMP180;6820;49.374;8.452;2022-12-04T21:29:56;100381.09;;;10.73
13497;BMP180;6820;49.374;8.452;2022-12-04T21:34:01;100384.72;;;10.77
13497;BMP180;6820;49.374;8.452;2022-12-04T21:38:03;100385.66;;;10.79
13497;BMP180;6820;49.374;8.452;2022-12-04T21:42:04;100385.06;;;10.83
13497;BMP180;6820;49.374;8.452;2022-12-04T21:46:25;100390.31;;;10.86
13497;BMP180;6820;49.374;8.452;2022-12-04T21:50:26;100397.47;;;10.93
13497;BMP180;6820;49.374;8.452;2022-12-04T21:54:28;100398.28;;;10.92
13497;BMP180;6820;49.374;8.452;2022-12-04T21:58:30;100401.97;;;10.96
13497;BMP180;6820;49.374;8.452;2022-12-04T22:02:32;100406.88;;;11.08
13497;BMP180;6820;49.374;8.452;2022-12-04T22:06:35;100411.69;;;11.18
13497;BMP180;6820;49.374;8.452;2022-12-04T22:10:44;100417.75;;;11.20
13497;BMP180;6820;49.374;8.452;2022-12-04T22:14:45;100415.78;;;11.16
13497;BMP180;6820;49.374;8.452;2022-12-04T22:18:47;100406.34;;;11.13
13497;BMP180;6820;49.374;8.452;2022-12-04T22:22:48;100416.25;;;11.09
13497;BMP180;6820;49.374;8.452;2022-12-04T22:26:50;100425.06;;;11.01
13497;BMP180;6820;49.374;8.452;2022-12-04T22:30:51;100429.63;;;11.06
13497;BMP180;6820;49.374;8.452;2022-12-04T22:34:53;100436.88;;;11.15
13497;BMP180;6820;49.374;8.452;2022-12-04T22:38:55;100428.94;;;11.23
13497;BMP180;6820;49.374;8.452;2022-12-04T22:43:12;100444.75;;;11.19
13497;BMP180;6820;49.374;8.452;2022-12-04T22:47:14;100444.84;;;11.21
13497;BMP180;6820;49.374;8.452;2022-12-04T22:51:17;100443.81;;;11.17
13497;BMP180;6820;49.374;8.452;2022-12-04T22:55:19;100445.44;;;11.17
13497;BMP180;6820;49.374;8.452;2022-12-04T22:59:21;100440.34;;;11.17
13497;BMP180;6820;49.374;8.452;2022-12-04T23:03:22;100442.91;;;11.17
13497;BMP180;6820;49.374;8.452;2022-12-04T23:07:24;100447.91;;;11.15
13497;BMP180;6820;49.374;8.452;2022-12-04T23:11:26;100442.03;;;11.16
13497;BMP180;6820;49.374;8.452;2022-12-04T23:15:28;100446.75;;;11.10
13497;BMP180;6820;49.374;8.452;2022-12-04T23:19:30;100444.50;;;11.15
13497;BMP180;6820;49.374;8.452;2022-12-04T23:23:34;100441.84;;;11.13
13497;BMP180;6820;49.374;8.452;2022-12-04T23:27:35;100446.22;;;11.16
13497;BMP180;6820;49.374;8.452;2022-12-04T23:31:37;100450.63;;;11.18
13497;BMP180;6820;49.374;8.452;2022-12-04T23:35:39;100443.00;;;11.18
13497;BMP180;6820;49.374;8.452;2022-12-04T23:39:41;100448.19;;;11.20
13497;BMP180;6820;49.374;8.452;2022-12-04T23:43:43;100466.97;;;11.23
13497;BMP180;6820;49.374;8.452;2022-12-04T23:47:44;100468.72;;;11.24
13497;BMP180;6820;49.374;8.452;2022-12-04T23:51:47;100467.44;;;11.30
13497;BMP180;6820;49.374;8.452;2022-12-04T23:56:02;100476.97;;;11.34
